Time;durP1;ratioP1;P1;durP2;ratioP2;P2;SDS_P1;SDS_P2;PMS_P1;PMS_P2;Temp;Humidity;BMP_temperature;BMP_pressure;BME280_temperature;BME280_humidity;BME280_pressure;Samples;Min_cycle;Max_cycle;Signal;HPM_P1;HPM_P2
2022/07/12 00:00:36;;;;;;;2.70;1.90;;;;;;;13.68;78.50;100344.11;130289;1268;108898;-83
2022/07/12 00:03:43;;;;;;;6.00;2.30;;;;;;;13.72;78.43;100343.88;130339;1268;107720;-79
2022/07/12 00:06:49;;;;;;;2.60;1.90;;;;;;;13.76;78.43;100347.88;130312;1268;107607;-79
2022/07/12 00:09:54;;;;;;;2.80;2.20;;;;;;;13.83;78.65;100346.11;130279;1268;108909;-78
2022/07/12 00:12:59;;;;;;;3.40;2.50;;;;;;;13.84;78.49;100340.55;130236;1268;108738;-79
2022/07/12 00:16:05;;;;;;;15.20;2.60;;;;;;;13.87;78.61;100344.06;130204;1268;108171;-79
2022/07/12 00:19:11;;;;;;;3.60;2.20;;;;;;;13.78;78.66;100350.35;130211;1268;108654;-78
2022/07/12 00:22:16;;;;;;;3.70;2.20;;;;;;;13.72;79.08;100347.33;130272;1268;108751;-79
2022/07/12 00:25:22;;;;;;;4.60;2.60;;;;;;;13.69;78.90;100344.45;130268;1268;107740;-78
2022/07/12 00:28:27;;;;;;;3.20;2.10;;;;;;;13.72;78.86;100349.61;130254;1268;106837;-79
2022/07/12 00:31:33;;;;;;;2.50;2.10;;;;;;;13.75;78.88;100350.52;130212;1268;108996;-79
2022/07/12 00:34:38;;;;;;;3.50;2.50;;;;;;;13.73;78.90;100350.56;130213;1268;108748;-79
2022/07/12 00:37:44;;;;;;;3.60;2.20;;;;;;;13.74;79.17;100355.45;130274;1267;108812;-78
2022/07/12 00:40:50;;;;;;;3.00;2.00;;;;;;;13.70;79.49;100353.26;130189;1267;108611;-80
2022/07/12 00:43:55;;;;;;;4.00;2.20;;;;;;;13.66;79.59;100354.27;130212;1268;108745;-79
2022/07/12 00:47:01;;;;;;;4.40;2.20;;;;;;;13.65;79.69;100358.84;130227;1268;108780;-79
2022/07/12 00:50:10;;;;;;;4.40;2.30;;;;;;;13.59;80.43;100359.89;130277;1267;108717;-80
2022/07/12 00:53:23;;;;;;;5.50;2.30;;;;;;;13.52;80.07;100362.91;130318;1267;108765;-78
2022/07/12 00:56:28;;;;;;;3.00;2.00;;;;;;;13.50;80.59;100363.68;130289;1268;107350;-77
2022/07/12 00:59:34;;;;;;;3.10;2.00;;;;;;;13.50;80.33;100364.52;130282;1268;107260;-75
2022/07/12 01:02:40;;;;;;;4.60;2.00;;;;;;;13.53;80.36;100366.57;130265;1268;108767;-76
2022/07/12 01:05:45;;;;;;;3.00;2.00;;;;;;;13.52;80.76;100362.94;130278;1268;108723;-76
2022/07/12 01:08:51;;;;;;;3.50;1.80;;;;;;;13.48;80.89;100362.27;130245;1268;108880;-80
2022/07/12 01:11:56;;;;;;;3.70;2.10;;;;;;;13.50;80.89;100359.36;129937;1268;443294;-80
2022/07/12 01:15:02;;;;;;;2.60;1.90;;;;;;;13.53;81.33;100359.05;130278;1268;108948;-81
2022/07/12 01:18:08;;;;;;;3.40;2.10;;;;;;;13.52;81.13;100355.23;130205;1268;108750;-80
2022/07/12 01:21:19;;;;;;;3.30;2.10;;;;;;;13.51;81.02;100352.62;130261;1268;108643;-80
2022/07/12 01:24:24;;;;;;;2.60;1.80;;;;;;;13.51;81.43;100352.65;130340;1268;108994;-81
2022/07/12 01:27:30;;;;;;;3.00;1.70;;;;;;;13.54;81.10;100349.70;130287;1268;108739;-76
2022/07/12 01:30:36;;;;;;;3.80;2.00;;;;;;;13.59;81.31;100349.27;130216;1268;108907;-76
2022/07/12 01:33:41;;;;;;;3.40;1.90;;;;;;;13.60;81.75;100348.29;130208;1268;108673;-75
2022/07/12 01:36:47;;;;;;;2.50;1.60;;;;;;;13.62;81.62;100342.85;130210;1268;108836;-76
2022/07/12 01:39:54;;;;;;;2.80;1.70;;;;;;;13.63;81.44;100341.34;130242;1268;108522;-75
2022/07/12 01:43:00;;;;;;;2.70;1.90;;;;;;;13.66;81.84;100336.21;130237;1268;108657;-77
2022/07/12 01:46:06;;;;;;;3.30;1.60;;;;;;;13.64;82.00;100339.50;130253;1268;108732;-76
2022/07/12 01:49:11;;;;;;;3.60;2.00;;;;;;;13.66;81.70;100337.95;130218;1268;108996;-79
2022/07/12 01:52:17;;;;;;;3.10;1.80;;;;;;;13.67;81.60;100333.36;130208;1268;107042;-78
2022/07/12 01:55:23;;;;;;;2.80;2.00;;;;;;;13.64;81.96;100332.50;130246;1268;109753;-78
2022/07/12 01:58:28;;;;;;;2.90;2.10;;;;;;;13.61;82.17;100328.21;130249;1267;108725;-82
2022/07/12 02:01:34;;;;;;;2.50;1.90;;;;;;;13.60;82.19;100325.27;130336;1268;107656;-84
2022/07/12 02:04:40;;;;;;;3.00;1.70;;;;;;;13.63;82.25;100327.64;130344;1267;108252;-82
2022/07/12 02:07:45;;;;;;;5.20;2.30;;;;;;;13.65;82.02;100325.91;130277;1268;109081;-80
2022/07/12 02:10:50;;;;;;;4.50;1.90;;;;;;;13.65;82.30;100328.40;130213;1268;108681;-79
2022/07/12 02:13:56;;;;;;;3.40;1.80;;;;;;;13.67;82.17;100324.23;130221;1267;108949;-75
2022/07/12 02:17:01;;;;;;;2.80;1.70;;;;;;;13.72;82.65;100326.41;130303;1268;108827;-78
2022/07/12 02:20:12;;;;;;;2.80;2.00;;;;;;;13.68;82.58;100329.09;130452;1268;108771;-77
2022/07/12 02:23:17;;;;;;;3.20;1.70;;;;;;;13.63;82.40;100328.34;130497;1268;108947;-75
2022/07/12 02:26:23;;;;;;;2.70;1.80;;;;;;;13.61;82.44;100327.48;130267;1267;108903;-80
2022/07/12 02:29:28;;;;;;;2.30;1.90;;;;;;;13.58;83.10;100322.41;130319;1267;108670;-79
2022/07/12 02:32:33;;;;;;;3.00;2.00;;;;;;;13.56;82.73;100319.45;130269;1268;108087;-76
2022/07/12 02:35:39;;;;;;;2.40;1.80;;;;;;;13.53;83.28;100321.69;130276;1267;108690;-77
2022/07/12 02:38:44;;;;;;;3.00;1.90;;;;;;;13.47;82.92;100321.67;130247;1267;108773;-76
2022/07/12 02:41:50;;;;;;;3.10;1.90;;;;;;;13.41;83.49;100325.05;130228;1267;108809;-77
2022/07/12 02:44:56;;;;;;;2.40;1.80;;;;;;;13.34;83.82;100325.74;130258;1267;108802;-76
2022/07/12 02:48:02;;;;;;;2.10;1.90;;;;;;;13.31;83.44;100327.89;130298;1268;108702;-78
2022/07/12 02:51:08;;;;;;;2.50;1.90;;;;;;;13.30;83.27;100322.92;130310;1268;108228;-77
2022/07/12 02:54:13;;;;;;;2.30;1.80;;;;;;;13.32;83.26;100321.19;130242;1267;108847;-80
2022/07/12 02:57:19;;;;;;;3.60;1.80;;;;;;;13.34;83.17;100322.36;130228;1268;108724;-76
2022/07/12 03:00:25;;;;;;;3.00;1.70;;;;;;;13.42;83.14;100316.66;130247;1268;108947;-77
2022/07/12 03:03:30;;;;;;;3.10;1.80;;;;;;;13.50;83.18;100319.38;130312;1268;107841;-73
2022/07/12 03:06:36;;;;;;;2.90;1.70;;;;;;;13.54;83.06;100315.90;130234;1267;108796;-76
2022/07/12 03:09:41;;;;;;;3.60;2.10;;;;;;;13.57;83.06;100311.94;130211;1267;108666;-78
2022/07/12 03:12:47;;;;;;;2.90;1.80;;;;;;;13.63;83.16;100304.14;130251;1267;108706;-78
2022/07/12 03:15:52;;;;;;;4.30;2.00;;;;;;;13.68;83.26;100304.70;130257;1268;107958;-77
2022/07/12 03:18:57;;;;;;;2.70;1.70;;;;;;;13.72;83.60;100306.90;130243;1268;109012;-77
2022/07/12 03:22:03;;;;;;;2.00;1.80;;;;;;;13.77;83.45;100312.21;130235;1267;108714;-77
2022/07/12 03:25:10;;;;;;;2.10;1.70;;;;;;;13.90;83.17;100303.98;130222;1267;108689;-77
2022/07/12 03:28:15;;;;;;;1.90;1.70;;;;;;;14.10;83.25;100302.06;130263;1268;108810;-78
2022/07/12 03:31:20;;;;;;;2.40;1.70;;;;;;;14.18;82.85;100306.02;130246;1267;108657;-78
2022/07/12 03:34:26;;;;;;;1.90;1.70;;;;;;;14.26;82.92;100302.28;130267;1267;108937;-78
2022/07/12 03:37:42;;;;;;;2.70;1.70;;;;;;;14.36;82.54;100300.38;130288;1267;108844;-77
2022/07/12 03:40:48;;;;;;;3.80;1.70;;;;;;;14.36;82.46;100301.09;130264;1267;108542;-77
2022/07/12 03:43:53;;;;;;;3.20;1.50;;;;;;;14.29;82.62;100305.41;130265;1267;108291;-78
2022/07/12 03:46:59;;;;;;;2.30;1.70;;;;;;;14.27;82.34;100306.73;130274;1268;108706;-78
2022/07/12 03:50:05;;;;;;;3.30;1.70;;;;;;;14.26;82.61;100312.24;130304;1267;108989;-78
2022/07/12 03:53:11;;;;;;;3.70;1.70;;;;;;;14.28;82.64;100306.96;130277;1268;108651;-78
2022/07/12 03:57:13;;;;;;;2.50;2.00;;;;;;;14.34;82.36;100304.73;130289;1268;108697;-78
2022/07/12 03:59:42;;;;;;;2.80;2.10;;;;;;;14.29;82.22;100299.42;130262;1268;109939;-78
2022/07/12 04:02:48;;;;;;;2.80;1.80;;;;;;;14.28;82.39;100297.37;130412;1268;107577;-78
2022/07/12 04:05:54;;;;;;;2.20;1.90;;;;;;;14.26;82.40;100293.29;130423;1268;108737;-78
2022/07/12 04:08:59;;;;;;;2.70;2.10;;;;;;;14.34;82.39;100289.66;130347;1268;108692;-78
2022/07/12 04:12:06;;;;;;;2.80;2.00;;;;;;;14.47;82.23;100283.33;130368;1268;108727;-79
2022/07/12 04:15:11;;;;;;;3.90;2.30;;;;;;;14.48;82.10;100280.33;130434;1267;108840;-78
2022/07/12 04:18:17;;;;;;;2.60;1.90;;;;;;;14.43;81.91;100277.21;130364;1268;108918;-79
2022/07/12 04:21:22;;;;;;;2.20;1.80;;;;;;;14.56;82.23;100274.26;130482;1267;109273;-78
2022/07/12 04:24:28;;;;;;;2.90;1.60;;;;;;;14.81;82.19;100273.48;130403;1268;109387;-78
2022/07/12 04:27:34;;;;;;;2.60;2.00;;;;;;;15.06;81.90;100270.29;130414;1267;108635;-78
2022/07/12 04:30:39;;;;;;;3.50;2.10;;;;;;;15.25;81.21;100273.73;130563;1268;108691;-76
2022/07/12 04:33:45;;;;;;;3.80;1.70;;;;;;;15.43;81.23;100277.14;130332;1268;108728;-76
2022/07/12 04:36:50;;;;;;;4.70;1.90;;;;;;;15.62;80.77;100284.34;130405;1268;107242;-77
2022/07/12 04:39:56;;;;;;;2.90;1.90;;;;;;;15.74;80.32;100284.55;130300;1268;108652;-77
2022/07/12 04:43:01;;;;;;;2.60;1.70;;;;;;;15.89;80.43;100282.91;130392;1268;108753;-77
2022/07/12 04:46:11;;;;;;;4.70;2.00;;;;;;;15.93;80.13;100282.58;130361;1268;108766;-77
2022/07/12 04:49:16;;;;;;;2.70;1.70;;;;;;;15.89;80.30;100281.27;130403;1268;108900;-80
2022/07/12 04:52:22;;;;;;;3.00;1.70;;;;;;;15.77;79.71;100284.05;130363;1267;108886;-78
2022/07/12 04:55:27;;;;;;;2.50;1.80;;;;;;;15.61;80.24;100288.00;130355;1268;109106;-81
2022/07/12 04:58:33;;;;;;;3.60;2.00;;;;;;;15.58;80.49;100286.13;130398;1267;108762;-83
2022/07/12 05:01:39;;;;;;;2.40;1.80;;;;;;;15.63;80.57;100278.68;130370;1268;108837;-74
2022/07/12 05:04:46;;;;;;;2.80;1.60;;;;;;;15.70;80.31;100273.70;130436;1268;108569;-73
2022/07/12 05:07:51;;;;;;;2.80;1.70;;;;;;;15.74;80.32;100270.04;130431;1268;108568;-74
2022/07/12 05:10:57;;;;;;;3.40;1.60;;;;;;;15.79;80.16;100266.91;130334;1268;107025;-74
2022/07/12 05:14:02;;;;;;;2.30;1.80;;;;;;;15.86;80.44;100267.83;130341;1268;108602;-72
2022/07/12 05:17:07;;;;;;;4.40;2.00;;;;;;;16.02;80.01;100269.36;130369;1267;108892;-72
2022/07/12 05:20:13;;;;;;;2.50;1.80;;;;;;;16.07;79.84;100272.65;130334;1268;108883;-74
2022/07/12 05:23:19;;;;;;;5.10;1.50;;;;;;;16.30;80.22;100270.64;130280;1268;108843;-74
2022/07/12 05:26:24;;;;;;;4.10;1.70;;;;;;;16.61;80.23;100267.02;130432;1268;107763;-74
2022/07/12 05:29:29;;;;;;;2.80;1.60;;;;;;;16.78;79.19;100259.11;130368;1268;108965;-74
2022/07/12 05:32:35;;;;;;;3.30;1.70;;;;;;;16.95;78.74;100255.30;130386;1268;108813;-74
2022/07/12 05:35:40;;;;;;;3.60;1.80;;;;;;;17.10;79.10;100255.27;130334;1268;108981;-72
2022/07/12 05:38:46;;;;;;;2.20;1.80;;;;;;;17.24;78.31;100256.90;130392;1268;108646;-72
2022/07/12 05:41:51;;;;;;;3.50;1.70;;;;;;;17.38;77.82;100260.73;130460;1268;108719;-74
2022/07/12 05:44:57;;;;;;;2.20;1.80;;;;;;;17.43;78.30;100261.53;130444;1268;107266;-74
2022/07/12 05:48:03;;;;;;;3.60;1.70;;;;;;;17.50;77.48;100254.40;130425;1268;108710;-72
2022/07/12 05:54:32;;;;;;;3.80;2.00;;;;;;;17.46;76.54;100257.20;130335;1268;108665;-73
2022/07/12 05:57:38;;;;;;;6.10;2.00;;;;;;;17.34;77.08;100252.23;130361;1268;108820;-73
2022/07/12 06:00:44;;;;;;;4.10;1.80;;;;;;;17.44;76.85;100251.80;130360;1268;108777;-73
2022/07/12 06:03:49;;;;;;;2.80;1.70;;;;;;;17.63;77.29;100253.14;130395;1268;108644;-73
2022/07/12 06:06:55;;;;;;;3.40;1.80;;;;;;;17.74;77.26;100249.67;130406;1268;108779;-73
2022/07/12 06:10:00;;;;;;;3.80;1.90;;;;;;;17.80;77.19;100250.63;130436;1267;109057;-73
2022/07/12 06:13:05;;;;;;;3.30;1.70;;;;;;;17.98;76.96;100247.52;130311;1267;108682;-74
2022/07/12 06:16:11;;;;;;;3.10;1.40;;;;;;;18.03;76.37;100243.98;130349;1268;108850;-73
2022/07/12 06:19:16;;;;;;;2.60;1.40;;;;;;;18.09;75.57;100245.45;130295;1268;108880;-73
2022/07/12 06:22:22;;;;;;;3.10;1.60;;;;;;;18.13;76.08;100243.14;130349;1268;108703;-74
2022/07/12 06:25:27;;;;;;;4.00;1.60;;;;;;;18.13;75.86;100243.42;130409;1268;108855;-73
2022/07/12 06:28:32;;;;;;;2.20;1.50;;;;;;;18.21;76.02;100239.88;130460;1268;107806;-73
2022/07/12 06:31:38;;;;;;;4.80;1.70;;;;;;;18.28;75.42;100238.43;130401;1267;108643;-73
2022/07/12 06:34:43;;;;;;;2.50;1.20;;;;;;;18.10;75.39;100237.89;130357;1268;108879;-74
2022/07/12 06:37:49;;;;;;;2.00;1.40;;;;;;;18.15;75.88;100235.83;130370;1268;108862;-74
2022/07/12 06:40:55;;;;;;;3.60;1.50;;;;;;;18.23;75.34;100230.16;130372;1268;108552;-74
2022/07/12 06:44:00;;;;;;;3.00;1.50;;;;;;;18.30;75.17;100229.48;130369;1268;108782;-74
2022/07/12 06:47:06;;;;;;;4.10;1.80;;;;;;;18.18;74.12;100229.27;130376;1268;108561;-74
2022/07/12 06:50:12;;;;;;;2.40;1.70;;;;;;;18.02;73.64;100229.32;130357;1268;108797;-74
2022/07/12 06:53:17;;;;;;;2.90;1.10;;;;;;;18.12;74.61;100227.35;130366;1267;108627;-74
2022/07/12 06:56:23;;;;;;;2.60;1.10;;;;;;;18.34;74.90;100225.69;130328;1267;108936;-74
2022/07/12 06:59:28;;;;;;;5.00;1.70;;;;;;;18.52;74.44;100224.85;130197;1267;108701;-74
2022/07/12 07:02:33;;;;;;;2.40;1.30;;;;;;;18.56;73.60;100228.89;130360;1267;108966;-74
2022/07/12 07:05:39;;;;;;;2.30;1.20;;;;;;;18.58;73.48;100228.67;130419;1267;108725;-74
2022/07/12 07:08:45;;;;;;;2.30;1.30;;;;;;;18.62;73.68;100231.22;130330;1268;108801;-74
2022/07/12 07:11:50;;;;;;;1.70;0.90;;;;;;;18.84;73.72;100235.42;130368;1267;108662;-73
2022/07/12 07:14:56;;;;;;;3.80;1.10;;;;;;;18.99;71.43;100235.38;130360;1268;108853;-74
2022/07/12 07:18:01;;;;;;;2.10;1.30;;;;;;;19.08;72.22;100239.95;130205;1270;108800;-74
2022/07/12 07:21:07;;;;;;;1.90;1.30;;;;;;;19.17;70.57;100238.52;130364;1268;108861;-74
2022/07/12 07:24:12;;;;;;;3.00;1.40;;;;;;;19.05;69.37;100243.23;130210;1267;108661;-73
2022/07/12 07:27:17;;;;;;;2.30;1.10;;;;;;;18.97;70.05;100245.53;130299;1268;108761;-73
2022/07/12 07:33:46;;;;;;;1.70;1.00;;;;;;;19.17;69.87;100241.90;130329;1268;108892;-73
2022/07/12 07:36:51;;;;;;;2.60;1.20;;;;;;;19.24;70.62;100247.87;130298;1268;108818;-73
2022/07/12 07:39:57;;;;;;;1.90;1.00;;;;;;;19.35;69.85;100242.83;130411;1268;108423;-75
2022/07/12 07:43:02;;;;;;;2.00;1.10;;;;;;;19.34;68.38;100244.28;130466;1268;108963;-76
2022/07/12 07:46:08;;;;;;;2.10;1.10;;;;;;;19.19;69.19;100244.51;130381;1268;108858;-75
2022/07/12 07:49:13;;;;;;;2.90;1.00;;;;;;;19.07;68.22;100247.98;130315;1268;108663;-74
2022/07/12 07:52:18;;;;;;;2.30;1.00;;;;;;;18.95;68.53;100246.13;130357;1268;108818;-73
2022/07/12 07:55:24;;;;;;;2.40;0.90;;;;;;;18.88;67.19;100247.02;130447;1268;108878;-74
2022/07/12 07:58:29;;;;;;;3.30;1.10;;;;;;;18.81;67.00;100252.80;130360;1268;108622;-73
2022/07/12 08:01:44;;;;;;;2.60;0.90;;;;;;;18.83;66.70;100249.98;130313;1268;108938;-74
2022/07/12 08:04:50;;;;;;;1.80;0.90;;;;;;;18.98;67.55;100250.10;130341;1268;108892;-73
2022/07/12 08:07:56;;;;;;;1.40;0.90;;;;;;;19.21;65.92;100250.30;130368;1268;107626;-73
2022/07/12 08:11:01;;;;;;;1.70;0.90;;;;;;;19.36;67.30;100249.15;130342;1267;108898;-73
2022/07/12 08:14:08;;;;;;;1.90;0.90;;;;;;;19.23;66.01;100252.46;130432;1268;108058;-73
2022/07/12 08:17:13;;;;;;;4.80;1.00;;;;;;;19.01;65.21;100259.59;130383;1267;109058;-73
2022/07/12 08:20:19;;;;;;;1.60;0.90;;;;;;;18.86;65.41;100254.56;130360;1268;108939;-73
2022/07/12 08:23:24;;;;;;;1.80;0.90;;;;;;;18.96;65.31;100259.13;130379;1268;108739;-74
2022/07/12 08:26:30;;;;;;;1.30;0.80;;;;;;;19.22;65.37;100250.71;130230;1269;109733;-74
2022/07/12 08:29:35;;;;;;;0.90;0.80;;;;;;;19.47;65.61;100250.96;130324;1268;108746;-74
2022/07/12 08:32:46;;;;;;;1.40;0.90;;;;;;;19.65;64.12;100254.30;130467;1268;109484;-74
2022/07/12 08:35:51;;;;;;;2.20;1.00;;;;;;;19.51;63.94;100255.33;130415;1268;108541;-74
2022/07/12 08:38:56;;;;;;;1.80;0.90;;;;;;;19.40;65.35;100256.80;130352;1268;107801;-74
2022/07/12 08:42:02;;;;;;;1.60;0.90;;;;;;;19.35;64.69;100253.95;130177;1270;108625;-74
2022/07/12 08:45:09;;;;;;;1.80;0.70;;;;;;;19.48;64.96;100252.16;130188;1269;108858;-73
2022/07/12 08:48:15;;;;;;;2.10;0.80;;;;;;;19.65;63.92;100260.17;130364;1268;109013;-73
2022/07/12 08:51:23;;;;;;;1.90;0.70;;;;;;;19.69;64.35;100251.48;130475;1268;109731;-73
2022/07/12 08:54:39;;;;;;;1.30;0.80;;;;;;;19.72;64.34;100251.42;130506;1268;108652;-74
2022/07/12 08:57:44;;;;;;;2.00;0.70;;;;;;;19.70;63.06;100251.20;130352;1268;108763;-74
2022/07/12 09:00:50;;;;;;;1.00;0.60;;;;;;;19.65;61.54;100252.00;130369;1267;108986;-74
2022/07/12 09:04:12;;;;;;;1.00;0.70;;;;;;;19.64;61.89;100250.08;130360;1267;108902;-74
2022/07/12 09:07:17;;;;;;;1.00;0.60;;;;;;;19.88;63.42;100244.83;130328;1268;109207;-74
2022/07/12 09:10:23;;;;;;;2.80;0.90;;;;;;;20.20;62.17;100239.52;130337;1268;108392;-74
2022/07/12 09:13:49;;;;;;;1.30;0.80;;;;;;;20.11;60.27;100245.93;130393;1268;108700;-74
2022/07/12 09:17:12;;;;;;;1.50;0.70;;;;;;;20.24;61.33;100244.36;130365;1267;108974;-74
2022/07/12 09:20:18;;;;;;;1.80;0.70;;;;;;;20.40;59.36;100250.23;130358;1268;107189;-74
2022/07/12 09:23:24;;;;;;;1.40;0.80;;;;;;;20.39;59.79;100241.65;130484;1267;108773;-74
2022/07/12 09:26:33;;;;;;;1.80;0.80;;;;;;;20.38;58.43;100239.95;130430;1267;108693;-74
2022/07/12 09:29:48;;;;;;;1.30;0.80;;;;;;;20.33;58.24;100240.85;130382;1268;108642;-74
2022/07/12 09:36:27;;;;;;;2.00;0.80;;;;;;;20.53;58.38;100241.65;130325;1268;108808;-74
2022/07/12 09:39:34;;;;;;;3.50;0.80;;;;;;;20.67;58.22;100239.16;130350;1268;108950;-74
2022/07/12 09:42:40;;;;;;;1.20;0.80;;;;;;;20.61;57.42;100241.40;130406;1268;108330;-74
2022/07/12 09:45:47;;;;;;;1.30;0.90;;;;;;;20.44;56.89;100244.79;130348;1268;108848;-74
2022/07/12 09:48:53;;;;;;;1.80;0.90;;;;;;;20.40;57.91;100244.44;130369;1268;108602;-73
2022/07/12 09:52:00;;;;;;;1.70;0.70;;;;;;;20.61;58.61;100232.98;130322;1268;108773;-73
2022/07/12 09:55:10;;;;;;;1.40;0.80;;;;;;;20.83;58.50;100228.31;130370;1268;109489;-74
2022/07/12 09:58:20;;;;;;;1.60;0.80;;;;;;;20.97;57.62;100230.33;130407;1268;109678;-74
2022/07/12 10:01:26;;;;;;;2.30;0.80;;;;;;;20.97;57.48;100224.85;130479;1268;108869;-74
2022/07/12 10:04:33;;;;;;;1.80;0.90;;;;;;;20.92;56.64;100224.19;130348;1268;108670;-74
2022/07/12 10:07:40;;;;;;;1.10;0.70;;;;;;;20.96;57.12;100218.02;130391;1268;108743;-74
2022/07/12 10:10:46;;;;;;;2.20;0.80;;;;;;;20.98;54.96;100219.99;130409;1267;108911;-74
2022/07/12 10:13:53;;;;;;;2.00;0.80;;;;;;;21.08;54.92;100221.11;130490;1268;108756;-73
2022/07/12 10:16:59;;;;;;;1.00;0.80;;;;;;;21.27;55.98;100220.44;130418;1268;109771;-74
2022/07/12 10:20:22;;;;;;;1.60;0.70;;;;;;;21.36;55.08;100224.21;130424;1268;109162;-74
2022/07/12 10:23:35;;;;;;;1.40;0.70;;;;;;;21.28;53.73;100222.23;130322;1267;108729;-73
2022/07/12 10:26:41;;;;;;;0.70;0.60;;;;;;;21.24;54.79;100218.45;130333;1268;109514;-74
2022/07/12 10:29:48;;;;;;;1.30;0.80;;;;;;;21.34;54.15;100221.66;130353;1267;108150;-75
2022/07/12 10:32:57;;;;;;;1.30;0.70;;;;;;;21.35;52.50;100226.73;130395;1268;108636;-74
2022/07/12 10:36:05;;;;;;;1.20;0.90;;;;;;;21.38;53.39;100220.91;130337;1267;108820;-74
2022/07/12 10:39:15;;;;;;;1.50;0.80;;;;;;;21.46;54.82;100220.14;130426;1268;108643;-74
2022/07/12 10:42:20;;;;;;;1.80;0.80;;;;;;;21.35;54.16;100218.52;130441;1268;108477;-75
2022/07/12 10:45:30;;;;;;;1.20;0.90;;;;;;;21.05;53.87;100217.35;130467;1268;108859;-74
2022/07/12 10:48:35;;;;;;;0.70;0.70;;;;;;;20.87;53.34;100214.67;130342;1268;108726;-74
2022/07/12 10:51:41;;;;;;;1.50;0.80;;;;;;;20.76;53.24;100224.98;130373;1268;108716;-74
2022/07/12 10:55:10;;;;;;;1.20;0.70;;;;;;;20.87;54.12;100220.48;130331;1268;108785;-74
2022/07/12 10:58:32;;;;;;;1.20;0.80;;;;;;;21.16;54.17;100219.29;130425;1268;108626;-74
2022/07/12 11:01:37;;;;;;;2.50;0.90;;;;;;;21.42;53.82;100210.95;130511;1268;109824;-74
2022/07/12 11:04:49;;;;;;;4.10;0.90;;;;;;;21.41;53.13;100205.35;130382;1268;108828;-74
2022/07/12 11:07:56;;;;;;;1.80;1.10;;;;;;;21.28;53.06;100209.85;130377;1268;107728;-74
2022/07/12 11:11:01;;;;;;;3.00;1.10;;;;;;;21.22;53.33;100207.55;130381;1268;108719;-74
2022/07/12 11:14:06;;;;;;;2.10;1.00;;;;;;;21.31;54.45;100206.63;130433;1267;108941;-74
2022/07/12 11:17:12;;;;;;;2.00;1.00;;;;;;;21.44;52.87;100208.09;130494;1267;108846;-73
2022/07/12 11:20:17;;;;;;;1.40;1.00;;;;;;;21.47;52.42;100195.02;130503;1268;108743;-73
2022/07/12 11:23:25;;;;;;;0.90;0.80;;;;;;;21.42;51.85;100198.79;130469;1267;108754;-74
2022/07/12 11:26:35;;;;;;;1.10;0.70;;;;;;;21.33;52.57;100206.10;130436;1268;108922;-73
2022/07/12 11:29:40;;;;;;;0.90;0.70;;;;;;;21.29;52.25;100201.41;130448;1268;108832;-74
2022/07/12 11:32:47;;;;;;;1.00;0.90;;;;;;;21.26;52.62;100206.20;130415;1268;109094;-73
2022/07/12 11:35:53;;;;;;;2.00;0.80;;;;;;;21.21;52.54;100194.11;130526;1268;108623;-74
2022/07/12 11:39:00;;;;;;;1.20;1.00;;;;;;;21.28;52.88;100193.04;130491;1268;108794;-74
2022/07/12 11:42:07;;;;;;;1.20;1.10;;;;;;;21.41;53.23;100188.60;130401;1267;108948;-75
2022/07/12 11:45:17;;;;;;;1.10;0.90;;;;;;;21.44;52.13;100184.41;130413;1268;108820;-74
2022/07/12 11:48:23;;;;;;;2.00;0.90;;;;;;;21.38;51.94;100188.20;130454;1268;108688;-74
2022/07/12 11:51:33;;;;;;;2.80;1.00;;;;;;;21.34;51.67;100184.38;130198;1265;108880;-74
2022/07/12 11:54:39;;;;;;;2.40;0.90;;;;;;;21.33;51.87;100184.25;130453;1268;108507;-73
2022/07/12 11:57:44;;;;;;;1.30;0.90;;;;;;;21.39;52.13;100184.61;130478;1267;108738;-74
2022/07/12 12:00:51;;;;;;;1.40;0.90;;;;;;;21.43;51.41;100188.05;130359;1268;108860;-74
2022/07/12 12:03:57;;;;;;;1.70;0.90;;;;;;;21.49;51.73;100182.42;130348;1268;108819;-74
2022/07/12 12:07:03;;;;;;;0.80;0.80;;;;;;;21.52;50.87;100180.63;130410;1268;108853;-73
2022/07/12 12:10:13;;;;;;;1.30;0.80;;;;;;;21.59;49.94;100169.30;130379;1268;108854;-74
2022/07/12 12:13:19;;;;;;;1.40;1.00;;;;;;;21.64;50.81;100169.77;130386;1267;107851;-74
2022/07/12 12:16:25;;;;;;;0.70;0.70;;;;;;;21.77;51.27;100165.38;130332;1268;108002;-74
2022/07/12 12:19:31;;;;;;;1.00;0.80;;;;;;;21.88;50.33;100162.14;130478;1268;108788;-74
2022/07/12 12:22:37;;;;;;;2.10;0.80;;;;;;;21.92;50.44;100163.05;130401;1268;109696;-74
2022/07/12 12:25:45;;;;;;;2.20;0.70;;;;;;;21.93;49.36;100167.05;130494;1268;107097;-74
2022/07/12 12:28:53;;;;;;;3.10;0.80;;;;;;;21.99;50.20;100160.04;130478;1268;108041;-74
2022/07/12 12:32:01;;;;;;;1.50;0.70;;;;;;;22.06;49.47;100161.58;130547;1268;107616;-74
2022/07/12 12:35:11;;;;;;;1.20;0.80;;;;;;;21.94;48.98;100162.89;130179;1270;108559;-74
2022/07/12 12:38:17;;;;;;;2.20;0.70;;;;;;;21.76;48.92;100164.64;130241;1268;108961;-75
2022/07/12 12:41:24;;;;;;;1.90;0.90;;;;;;;21.75;49.21;100159.72;130499;1268;108880;-74
2022/07/12 12:44:34;;;;;;;1.50;0.70;;;;;;;21.77;49.13;100158.15;130429;1268;108772;-74
2022/07/12 12:47:53;;;;;;;1.30;0.70;;;;;;;21.86;49.16;100152.80;130479;1268;108818;-74
2022/07/12 12:51:07;;;;;;;0.80;0.60;;;;;;;21.96;49.65;100148.48;130289;1268;109108;-74
2022/07/12 12:54:12;;;;;;;0.70;0.70;;;;;;;22.10;49.75;100150.59;130346;1268;109135;-75
2022/07/12 12:57:18;;;;;;;1.40;1.00;;;;;;;22.15;48.67;100152.14;130232;1271;108965;-74
2022/07/12 13:00:23;;;;;;;3.60;0.90;;;;;;;22.18;48.51;100146.41;130384;1268;109068;-74
2022/07/12 13:03:29;;;;;;;2.30;0.60;;;;;;;22.12;48.04;100155.33;130477;1268;107818;-75
2022/07/12 13:06:34;;;;;;;2.00;0.70;;;;;;;22.15;48.50;100150.09;130421;1268;108845;-75
2022/07/12 13:09:40;;;;;;;0.80;0.80;;;;;;;22.15;48.19;100150.09;130196;1270;108836;-75
2022/07/12 13:12:46;;;;;;;2.50;0.70;;;;;;;22.13;48.13;100146.12;130184;1268;244100;-75
2022/07/12 13:15:51;;;;;;;1.50;0.70;;;;;;;22.08;48.04;100149.61;130234;1268;108555;-75
2022/07/12 13:18:56;;;;;;;2.50;0.70;;;;;;;22.09;48.33;100139.77;130312;1268;108606;-74
2022/07/12 13:22:02;;;;;;;1.70;0.60;;;;;;;21.97;47.17;100146.64;130447;1267;108840;-75
2022/07/12 13:25:10;;;;;;;2.10;0.90;;;;;;;21.76;47.06;100139.61;130634;1268;108790;-72
2022/07/12 13:28:15;;;;;;;1.70;0.90;;;;;;;21.65;47.22;100143.69;130406;1268;108908;-73
2022/07/12 13:31:21;;;;;;;1.30;0.80;;;;;;;21.64;47.86;100142.95;130159;1271;108705;-72
2022/07/12 13:34:26;;;;;;;1.40;0.70;;;;;;;21.64;47.73;100140.81;130456;1268;108868;-75
2022/07/12 13:37:32;;;;;;;1.40;0.60;;;;;;;21.63;46.48;100137.16;130185;1271;107703;-83
2022/07/12 13:40:37;;;;;;;2.90;0.80;;;;;;;21.58;46.32;100133.35;130622;1268;108862;-84
2022/07/12 13:43:43;;;;;;;3.00;0.70;;;;;;;21.60;46.22;100131.42;130863;1267;108997;-86
2022/07/12 13:46:48;;;;;;;0.90;0.60;;;;;;;21.60;45.87;100125.95;131116;1268;108688;-75
2022/07/12 13:49:54;;;;;;;1.20;0.60;;;;;;;21.61;46.30;100131.58;130459;1267;108858;-77
2022/07/12 13:53:00;;;;;;;0.80;0.70;;;;;;;21.66;45.49;100140.04;130438;1268;106691;-77
2022/07/12 13:56:06;;;;;;;1.40;0.80;;;;;;;21.71;45.09;100139.30;130360;1268;108564;-77
2022/07/12 13:59:12;;;;;;;0.90;0.70;;;;;;;21.78;45.48;100134.11;130464;1268;108857;-74
2022/07/12 14:02:17;;;;;;;1.90;0.60;;;;;;;21.92;45.61;100130.58;130422;1268;108355;-72
2022/07/12 14:05:23;;;;;;;3.80;0.70;;;;;;;22.01;45.21;100127.42;130431;1268;108663;-73
2022/07/12 14:08:29;;;;;;;0.60;0.60;;;;;;;22.04;44.72;100122.94;130497;1268;108875;-76
2022/07/12 14:11:35;;;;;;;0.80;0.70;;;;;;;22.04;45.22;100116.15;130641;1268;108747;-74
2022/07/12 14:17:59;;;;;;;1.20;0.70;;;;;;;22.17;46.27;100102.56;130157;1268;107695;-76
2022/07/12 14:21:05;;;;;;;1.70;0.60;;;;;;;22.29;45.76;100101.65;130595;1267;108957;-78